New Kensington, Pennsylvania
Current Conditions -  °F | °C
As of 11:53 AM on Wednesday 26 Nov 2014 (Local Time) from KAGC Reporting Station
Light Snow Light Snow  
Wind Chill: 26°   Ceiling: 400
Heat Index: 31°   Visibility: 0.5mi
Dew Point: 28°   Wind: 5mph
Humidity: 89%   Direction: 10°N
Pressure: 30.03"   Gusts: NA
Location:  40.57°N, 79.77°W
Report Text: KAGC 261653Z 01004KT 1/2SM R28/5000V6000FT -SN FZFG OVC004 M01/M02 A3003 RMK AO2 SLP187 P0002 T10061022
Loading
Personal Weather Stations






























Interactive Weather Map New forecast layout! Learn more

10-Day Weather Forecast

Advertisements
Track Severe Weather on mobile